createdAt,value
2023-07-03T00:01:15.702Z,13.53
2023-07-03T00:03:58.737Z,13.53
2023-07-03T00:06:32.425Z,13.54
2023-07-03T00:09:06.772Z,13.55
2023-07-03T00:11:40.270Z,13.56
2023-07-03T00:14:13.953Z,13.57
2023-07-03T00:16:48.271Z,13.59
2023-07-03T00:19:28.559Z,13.57
2023-07-03T00:22:02.287Z,13.65
2023-07-03T00:24:36.184Z,13.68
2023-07-03T00:27:10.890Z,13.70
2023-07-03T00:29:44.421Z,13.72
2023-07-03T00:32:18.281Z,13.74
2023-07-03T00:34:51.771Z,13.70
2023-07-03T00:37:25.432Z,13.80
2023-07-03T00:40:00.058Z,13.83
2023-07-03T00:42:34.535Z,13.85
2023-07-03T00:45:10.524Z,13.88
2023-07-03T00:47:44.256Z,13.78
2023-07-03T00:50:18.136Z,13.93
2023-07-03T00:52:55.864Z,13.95
2023-07-03T00:55:29.629Z,13.98
2023-07-03T00:58:03.185Z,14.00
2023-07-03T01:00:43.809Z,14.01
2023-07-03T01:03:25.537Z,13.99
2023-07-03T01:05:59.360Z,14.05
2023-07-03T01:08:34.282Z,14.06
2023-07-03T01:11:08.757Z,14.05
2023-07-03T01:13:43.265Z,14.01
2023-07-03T01:16:17.706Z,13.99
2023-07-03T01:18:54.568Z,13.98
2023-07-03T01:21:37.705Z,13.99
2023-07-03T01:24:15.871Z,13.99
2023-07-03T01:26:49.892Z,13.99
2023-07-03T01:29:27.630Z,13.99
2023-07-03T01:32:02.928Z,14.00
2023-07-03T01:34:38.514Z,14.00
2023-07-03T01:37:13.690Z,14.01
2023-07-03T01:39:48.537Z,13.98
2023-07-03T01:42:24.203Z,14.04
2023-07-03T01:44:58.168Z,14.06
2023-07-03T01:47:31.838Z,14.08
2023-07-03T01:50:06.391Z,14.08
2023-07-03T01:52:43.308Z,14.10
2023-07-03T01:55:25.528Z,14.12
2023-07-03T01:58:06.086Z,14.13
2023-07-03T02:00:45.507Z,14.16
2023-07-03T02:03:26.228Z,14.18
2023-07-03T02:06:02.165Z,14.20
2023-07-03T02:08:36.530Z,14.08
2023-07-03T02:11:17.580Z,14.22
2023-07-03T02:13:53.248Z,14.24
2023-07-03T02:16:31.852Z,14.26
2023-07-03T02:19:06.232Z,14.27
2023-07-03T02:21:40.956Z,14.28
2023-07-03T02:24:15.330Z,14.30
2023-07-03T02:26:48.936Z,14.31
2023-07-03T02:29:22.724Z,14.32
2023-07-03T02:31:56.297Z,14.33
2023-07-03T02:34:30.059Z,14.34
2023-07-03T02:37:03.684Z,14.36
2023-07-03T02:39:37.241Z,14.38
2023-07-03T02:42:11.389Z,14.40
2023-07-03T02:44:45.098Z,14.40
2023-07-03T02:47:18.717Z,14.40
2023-07-03T02:49:52.543Z,14.40
2023-07-03T02:52:26.495Z,14.42
2023-07-03T02:55:00.540Z,14.42
2023-07-03T02:57:34.816Z,14.43
2023-07-03T03:00:12.743Z,14.43
2023-07-03T03:02:47.153Z,14.42
2023-07-03T03:05:21.145Z,14.40
2023-07-03T03:07:55.057Z,14.38
2023-07-03T03:10:28.451Z,14.37
2023-07-03T03:13:01.938Z,14.37
2023-07-03T03:15:38.077Z,14.38
2023-07-03T03:18:11.944Z,14.39
2023-07-03T03:20:46.163Z,14.41
2023-07-03T03:23:19.889Z,14.41
2023-07-03T03:25:53.384Z,14.45
2023-07-03T03:28:27.482Z,14.47
2023-07-03T03:31:01.294Z,14.48
2023-07-03T03:33:35.879Z,14.50
2023-07-03T03:36:09.938Z,14.52
2023-07-03T03:38:43.674Z,14.54
2023-07-03T03:41:17.272Z,14.57
2023-07-03T03:43:51.824Z,14.59
2023-07-03T03:46:28.185Z,14.62
2023-07-03T03:49:02.432Z,14.64
2023-07-03T03:51:36.811Z,14.66
2023-07-03T03:54:10.534Z,14.70
2023-07-03T03:56:44.230Z,14.71
2023-07-03T03:59:18.827Z,14.75
2023-07-03T04:01:52.909Z,14.76
2023-07-03T04:04:26.791Z,14.78
2023-07-03T04:07:01.140Z,14.81
2023-07-03T04:09:34.940Z,14.84
2023-07-03T04:12:10.467Z,14.87
2023-07-03T04:14:44.424Z,14.91
2023-07-03T04:17:19.087Z,14.95
2023-07-03T04:19:52.813Z,15.00
2023-07-03T04:22:28.008Z,15.04
2023-07-03T04:25:01.858Z,15.08
2023-07-03T04:27:36.399Z,15.15
2023-07-03T04:30:12.255Z,15.21
2023-07-03T04:32:56.377Z,15.27
2023-07-03T04:35:32.312Z,15.33
2023-07-03T04:38:06.412Z,15.41
2023-07-03T04:40:40.468Z,15.48
2023-07-03T04:43:17.423Z,15.56
2023-07-03T04:45:53.157Z,15.62
2023-07-03T04:48:27.352Z,15.68
2023-07-03T04:51:01.345Z,15.73
2023-07-03T04:53:43.914Z,15.79
2023-07-03T04:56:18.143Z,15.85
2023-07-03T04:58:51.604Z,15.91
2023-07-03T05:01:27.826Z,15.97
2023-07-03T05:04:00.074Z,16.03
2023-07-03T05:06:34.298Z,16.08
2023-07-03T05:09:09.567Z,16.14
2023-07-03T05:11:43.184Z,16.19
2023-07-03T05:14:16.751Z,16.23
2023-07-03T05:16:50.563Z,16.31
2023-07-03T05:19:24.487Z,16.38
2023-07-03T05:21:58.161Z,16.45
2023-07-03T05:24:32.368Z,16.52
2023-07-03T05:27:08.491Z,16.59
2023-07-03T05:29:40.651Z,16.67
2023-07-03T05:32:14.724Z,16.73
2023-07-03T05:34:48.293Z,16.76
2023-07-03T05:37:22.242Z,16.88
2023-07-03T05:39:56.510Z,16.96
2023-07-03T05:42:30.570Z,17.02
2023-07-03T05:45:04.098Z,17.07
2023-07-03T05:47:37.903Z,17.16
2023-07-03T05:50:13.308Z,17.23
2023-07-03T05:52:47.014Z,17.35
2023-07-03T05:55:20.692Z,17.46
2023-07-03T05:57:54.455Z,17.55
2023-07-03T06:00:32.161Z,17.67
2023-07-03T06:03:06.590Z,17.82
2023-07-03T06:05:40.760Z,17.95
2023-07-03T06:08:14.486Z,18.03
2023-07-03T06:10:48.021Z,18.11
2023-07-03T06:13:21.468Z,18.21
2023-07-03T06:15:54.849Z,18.30
2023-07-03T06:18:28.570Z,18.44
2023-07-03T06:21:02.397Z,18.58
2023-07-03T06:23:36.286Z,18.66
2023-07-03T06:26:09.886Z,18.73
2023-07-03T06:28:43.777Z,18.81
2023-07-03T06:31:17.755Z,18.89
2023-07-03T06:33:51.376Z,18.97
2023-07-03T06:36:25.212Z,19.07
2023-07-03T06:38:59.983Z,19.17
2023-07-03T06:41:37.112Z,19.22
2023-07-03T06:44:13.691Z,19.25
2023-07-03T06:46:48.052Z,19.36
2023-07-03T06:49:24.004Z,19.49
2023-07-03T06:51:55.984Z,19.66
2023-07-03T06:54:30.373Z,19.82
2023-07-03T06:57:06.397Z,19.99
2023-07-03T06:59:39.856Z,20.14
2023-07-03T07:02:13.268Z,20.28
2023-07-03T07:04:46.908Z,20.44
2023-07-03T07:07:20.518Z,20.59
2023-07-03T07:09:54.155Z,20.70
2023-07-03T07:12:28.099Z,20.80
2023-07-03T07:15:01.898Z,20.86
2023-07-03T07:17:50.558Z,20.92
2023-07-03T07:20:25.338Z,21.03
2023-07-03T07:22:58.689Z,21.15
2023-07-03T07:25:32.039Z,21.23
2023-07-03T07:28:05.819Z,21.36
2023-07-03T07:30:40.990Z,21.46
2023-07-03T07:33:14.202Z,21.54
2023-07-03T07:35:48.179Z,21.64
2023-07-03T07:38:23.347Z,21.73
2023-07-03T07:41:05.506Z,21.87
2023-07-03T07:43:39.042Z,22.02
2023-07-03T07:46:13.547Z,22.14
2023-07-03T07:48:48.851Z,22.22
2023-07-03T07:51:22.220Z,22.29
2023-07-03T07:53:56.679Z,22.36
2023-07-03T07:56:31.790Z,22.48
2023-07-03T07:59:07.898Z,22.57
2023-07-03T08:01:41.789Z,22.60
2023-07-03T08:04:15.649Z,22.75
2023-07-03T08:06:48.825Z,22.89
2023-07-03T08:09:24.138Z,22.91
2023-07-03T08:11:57.476Z,22.97
2023-07-03T08:14:32.478Z,22.99
2023-07-03T08:17:05.999Z,23.09
2023-07-03T08:19:42.890Z,23.22
2023-07-03T08:22:18.267Z,23.31
2023-07-03T08:24:51.865Z,23.37
2023-07-03T08:27:25.404Z,23.38
2023-07-03T08:29:59.060Z,23.42
2023-07-03T08:32:32.269Z,23.55
2023-07-03T08:37:41.683Z,24.03
2023-07-03T08:40:21.538Z,24.37
2023-07-03T08:42:56.892Z,24.67
2023-07-03T08:45:37.427Z,24.87
2023-07-03T08:48:14.333Z,25.14
2023-07-03T08:50:52.075Z,25.21
2023-07-03T08:53:30.021Z,25.14
2023-07-03T08:56:08.444Z,25.12
2023-07-03T08:58:42.020Z,25.25
2023-07-03T09:01:23.692Z,25.19
2023-07-03T09:04:08.724Z,25.20
2023-07-03T09:06:48.567Z,25.04
2023-07-03T09:09:29.230Z,24.90
2023-07-03T09:12:09.957Z,24.90
2023-07-03T09:14:50.924Z,25.04
2023-07-03T09:17:29.706Z,25.01
2023-07-03T09:20:08.318Z,24.79
2023-07-03T09:22:49.234Z,24.69
2023-07-03T09:25:29.937Z,24.68
2023-07-03T09:28:07.108Z,24.74
2023-07-03T09:30:42.327Z,24.83
2023-07-03T09:33:16.401Z,24.91
2023-07-03T09:35:52.385Z,24.88
2023-07-03T09:38:27.477Z,24.85
2023-07-03T09:41:08.054Z,24.85
2023-07-03T09:43:47.020Z,24.94
2023-07-03T09:46:22.185Z,25.11
2023-07-03T09:48:55.839Z,25.34
2023-07-03T09:51:32.493Z,25.44
2023-07-03T09:54:10.669Z,25.40
2023-07-03T09:56:43.855Z,25.24
2023-07-03T09:59:19.932Z,25.13
2023-07-03T10:07:25.122Z,25.11
2023-07-03T10:12:39.410Z,25.20
2023-07-03T10:15:17.846Z,25.26
2023-07-03T10:17:55.651Z,25.36
2023-07-03T10:20:36.444Z,25.49
2023-07-03T10:23:12.949Z,25.47
2023-07-03T10:25:52.206Z,25.47
2023-07-03T10:28:29.247Z,25.53
2023-07-03T10:31:08.021Z,25.64
2023-07-03T10:33:46.499Z,25.83
2023-07-03T10:36:25.546Z,25.87
2023-07-03T10:39:06.844Z,25.98
2023-07-03T10:41:46.649Z,26.01
2023-07-03T10:44:28.018Z,26.06
2023-07-03T10:47:07.514Z,26.07
2023-07-03T10:49:42.827Z,25.76
2023-07-03T10:52:26.653Z,25.47
2023-07-03T10:55:08.538Z,25.39
2023-07-03T10:57:48.956Z,25.34
2023-07-03T11:00:31.340Z,25.29
2023-07-03T11:03:17.017Z,25.16
2023-07-03T11:06:00.166Z,25.12
2023-07-03T11:08:42.031Z,25.20
2023-07-03T11:11:27.578Z,25.18
2023-07-03T11:14:05.248Z,25.23
2023-07-03T11:16:54.626Z,25.35
2023-07-03T11:25:18.136Z,25.41
2023-07-03T11:28:07.086Z,25.35
2023-07-03T11:30:45.983Z,25.23
2023-07-03T11:33:22.992Z,25.23
2023-07-03T11:35:58.837Z,25.11
2023-07-03T11:43:53.609Z,25.11
2023-07-03T11:46:29.123Z,25.03
2023-07-03T11:49:12.788Z,24.95
2023-07-03T11:51:48.204Z,24.91
2023-07-03T11:54:29.362Z,24.80
2023-07-03T11:57:06.913Z,24.69
2023-07-03T11:59:42.876Z,24.63
2023-07-03T12:02:47.143Z,24.60
2023-07-03T12:05:51.825Z,24.78
2023-07-03T12:08:46.984Z,25.02
2023-07-03T12:11:28.433Z,25.18
2023-07-03T12:14:01.813Z,25.31
2023-07-03T12:16:36.630Z,25.30
2023-07-03T12:19:12.258Z,25.09
2023-07-03T12:21:51.686Z,24.99
2023-07-03T12:24:31.305Z,24.99
2023-07-03T12:27:11.911Z,25.05
2023-07-03T12:29:53.809Z,25.08
2023-07-03T12:32:33.214Z,24.86
2023-07-03T12:35:22.927Z,24.83
2023-07-03T12:38:02.029Z,24.91
2023-07-03T12:40:52.609Z,25.02
2023-07-03T12:43:36.524Z,25.08
2023-07-03T12:46:13.239Z,25.19
2023-07-03T12:48:46.703Z,25.22
2023-07-03T12:51:21.128Z,25.35
2023-07-03T12:53:54.571Z,25.48
2023-07-03T12:56:30.919Z,25.58
2023-07-03T12:59:05.505Z,25.53
2023-07-03T13:01:41.807Z,25.56
2023-07-03T13:04:13.428Z,25.59
2023-07-03T13:06:47.736Z,25.54
2023-07-03T13:09:21.093Z,25.60
2023-07-03T13:11:54.558Z,25.79
2023-07-03T13:14:29.749Z,25.89
2023-07-03T13:17:07.400Z,25.94
2023-07-03T13:19:40.828Z,25.97
2023-07-03T13:22:22.040Z,26.04
2023-07-03T13:24:55.799Z,26.06
2023-07-03T13:27:30.917Z,26.01
2023-07-03T13:30:19.467Z,26.11
2023-07-03T13:33:04.228Z,26.20
2023-07-03T13:35:43.933Z,26.15
2023-07-03T13:38:29.381Z,26.13
2023-07-03T13:41:02.148Z,26.20
2023-07-03T13:43:36.380Z,26.23
2023-07-03T13:46:09.836Z,26.17
2023-07-03T13:48:43.237Z,26.04
2023-07-03T13:51:16.565Z,26.05
2023-07-03T13:53:56.172Z,26.18
2023-07-03T13:56:34.976Z,26.34
2023-07-03T13:59:10.710Z,26.41
2023-07-03T14:01:45.391Z,26.43
2023-07-03T14:04:19.017Z,26.39
2023-07-03T14:06:52.436Z,26.35
2023-07-03T14:09:25.996Z,26.29
2023-07-03T14:11:59.286Z,26.21
2023-07-03T14:14:32.413Z,26.40
2023-07-03T14:17:06.143Z,26.49
2023-07-03T14:19:39.758Z,26.63
2023-07-03T14:22:13.310Z,26.81
2023-07-03T14:24:47.118Z,26.79
2023-07-03T14:27:20.880Z,26.70
2023-07-03T14:29:54.628Z,26.54
2023-07-03T14:32:43.958Z,26.55
2023-07-03T14:35:21.853Z,26.64
2023-07-03T14:37:55.063Z,26.72
2023-07-03T14:40:29.044Z,26.71
2023-07-03T14:43:02.266Z,26.76
2023-07-03T14:45:35.696Z,26.82
2023-07-03T14:48:12.355Z,26.93
2023-07-03T14:50:47.218Z,27.04
2023-07-03T14:53:20.594Z,26.94
2023-07-03T14:56:03.506Z,26.85
2023-07-03T14:58:37.454Z,26.91
2023-07-03T15:01:11.055Z,27.00
2023-07-03T15:03:45.425Z,27.06
2023-07-03T15:06:19.429Z,27.14
2023-07-03T15:09:01.668Z,27.20
2023-07-03T15:11:44.814Z,27.17
2023-07-03T15:14:24.057Z,27.16
2023-07-03T15:17:00.882Z,27.19
2023-07-03T15:19:35.646Z,27.42
2023-07-03T15:22:10.725Z,27.51
2023-07-03T15:24:46.394Z,27.43
2023-07-03T15:27:20.209Z,27.27
2023-07-03T15:29:54.674Z,27.12
2023-07-03T15:32:28.322Z,27.00
2023-07-03T15:35:03.241Z,26.83
2023-07-03T15:37:37.107Z,26.60
2023-07-03T15:40:14.393Z,26.29
2023-07-03T15:42:47.835Z,26.05
2023-07-03T15:45:23.550Z,25.89
2023-07-03T15:47:55.737Z,25.76
2023-07-03T15:50:29.197Z,25.65
2023-07-03T15:53:07.039Z,25.63
2023-07-03T15:55:41.069Z,25.70
2023-07-03T15:58:18.205Z,25.80
2023-07-03T16:01:01.791Z,25.81
2023-07-03T16:03:35.406Z,25.75
2023-07-03T16:06:11.018Z,25.68
2023-07-03T16:08:45.953Z,25.57
2023-07-03T16:11:21.662Z,25.51
2023-07-03T16:13:55.194Z,25.50
2023-07-03T16:16:29.871Z,25.56
2023-07-03T16:19:05.186Z,25.70
2023-07-03T16:21:39.078Z,25.84
2023-07-03T16:24:12.763Z,25.93
2023-07-03T16:26:46.462Z,25.92
2023-07-03T16:29:20.055Z,25.84
2023-07-03T16:31:54.405Z,25.81
2023-07-03T16:34:28.157Z,25.78
2023-07-03T16:37:01.707Z,25.81
2023-07-03T16:39:35.112Z,25.75
2023-07-03T16:42:09.298Z,25.75
2023-07-03T16:44:43.006Z,25.75
2023-07-03T16:47:16.973Z,25.73
2023-07-03T16:49:50.585Z,25.70
2023-07-03T16:52:23.896Z,25.64
2023-07-03T16:54:58.052Z,25.58
2023-07-03T16:57:31.494Z,25.50
2023-07-03T17:00:06.498Z,25.39
2023-07-03T17:02:40.139Z,25.31
2023-07-03T17:05:14.645Z,25.24
2023-07-03T17:07:49.134Z,25.16
2023-07-03T17:10:22.800Z,25.10
2023-07-03T17:12:56.391Z,25.06
2023-07-03T17:15:29.730Z,25.05
2023-07-03T17:18:03.867Z,25.07
2023-07-03T17:20:37.578Z,25.10
2023-07-03T17:23:11.338Z,25.16
2023-07-03T17:25:45.579Z,25.24
2023-07-03T17:28:19.626Z,25.27
2023-07-03T17:30:53.262Z,25.79
2023-07-03T17:33:27.131Z,26.02
2023-07-03T17:36:02.702Z,26.00
2023-07-03T17:38:37.227Z,25.90
2023-07-03T17:41:10.888Z,25.99
2023-07-03T17:43:44.971Z,25.92
2023-07-03T17:46:18.535Z,25.79
2023-07-03T17:48:52.631Z,25.67
2023-07-03T17:51:33.660Z,25.60
2023-07-03T17:54:08.158Z,25.67
2023-07-03T17:56:41.580Z,26.22
2023-07-03T17:59:15.695Z,26.74
2023-07-03T18:01:50.263Z,27.17
2023-07-03T18:04:24.173Z,27.27
2023-07-03T18:06:58.267Z,26.98
2023-07-03T18:09:31.821Z,26.61
2023-07-03T18:12:05.963Z,26.28
2023-07-03T18:14:39.746Z,25.97
2023-07-03T18:17:13.717Z,25.69
2023-07-03T18:19:47.497Z,25.75
2023-07-03T18:22:21.128Z,25.51
2023-07-03T18:24:55.476Z,25.27
2023-07-03T18:27:30.519Z,24.95
2023-07-03T18:30:04.654Z,24.66
2023-07-03T18:32:38.755Z,24.42
2023-07-03T18:35:13.327Z,24.21
2023-07-03T18:37:47.510Z,24.00
2023-07-03T18:40:21.398Z,23.74
2023-07-03T18:42:56.133Z,23.42
2023-07-03T18:45:30.865Z,23.19
2023-07-03T18:48:06.108Z,23.01
2023-07-03T18:50:42.521Z,22.88
2023-07-03T18:53:16.695Z,22.68
2023-07-03T18:55:52.435Z,22.44
2023-07-03T18:58:29.359Z,22.29
2023-07-03T19:01:03.598Z,22.09
2023-07-03T19:03:38.936Z,21.90
2023-07-03T19:06:16.860Z,21.70
2023-07-03T19:08:51.324Z,21.48
2023-07-03T19:11:27.776Z,21.29
2023-07-03T19:14:02.885Z,21.08
2023-07-03T19:16:37.453Z,20.94
2023-07-03T19:19:12.091Z,20.72
2023-07-03T19:21:47.889Z,20.56
2023-07-03T19:24:22.592Z,20.49
2023-07-03T19:26:56.830Z,20.34
2023-07-03T19:29:31.177Z,20.21
2023-07-03T19:32:04.737Z,20.08
2023-07-03T19:34:39.141Z,19.91
2023-07-03T19:37:12.801Z,19.77
2023-07-03T19:39:46.496Z,19.65
2023-07-03T19:42:19.843Z,19.53
2023-07-03T19:44:53.512Z,19.38
2023-07-03T19:47:27.485Z,19.24
2023-07-03T19:50:02.931Z,19.14
2023-07-03T19:52:36.878Z,19.07
2023-07-03T19:55:11.711Z,18.97
2023-07-03T19:57:46.615Z,18.86
2023-07-03T20:00:21.859Z,18.76
2023-07-03T20:02:55.502Z,18.67
2023-07-03T20:05:36.597Z,18.56
2023-07-03T20:08:11.893Z,18.46
2023-07-03T20:10:46.566Z,18.35
2023-07-03T20:13:20.339Z,18.23
2023-07-03T20:15:54.194Z,18.12
2023-07-03T20:18:28.259Z,18.02
2023-07-03T20:21:05.517Z,17.93
2023-07-03T20:23:40.097Z,17.79
2023-07-03T20:26:14.093Z,17.77
2023-07-03T20:28:48.352Z,17.68
2023-07-03T20:31:22.731Z,17.61
2023-07-03T20:33:59.618Z,17.57
2023-07-03T20:36:31.570Z,17.55
2023-07-03T20:39:06.630Z,17.52
2023-07-03T20:41:40.711Z,17.48
2023-07-03T20:44:15.761Z,17.44
2023-07-03T20:46:49.807Z,17.41
2023-07-03T20:49:23.826Z,17.31
2023-07-03T20:52:00.830Z,17.33
2023-07-03T20:54:39.177Z,17.28
2023-07-03T20:57:16.370Z,17.23
2023-07-03T20:59:53.272Z,17.17
2023-07-03T21:02:27.346Z,17.12
2023-07-03T21:05:01.358Z,17.07
2023-07-03T21:07:35.045Z,17.01
2023-07-03T21:10:10.801Z,16.96
2023-07-03T21:13:02.013Z,16.92
2023-07-03T21:15:37.061Z,16.85
2023-07-03T21:18:11.010Z,16.79
2023-07-03T21:20:44.609Z,16.72
2023-07-03T21:23:18.324Z,16.65
2023-07-03T21:25:52.246Z,16.58
2023-07-03T21:28:26.402Z,16.53
2023-07-03T21:31:00.203Z,16.48
2023-07-03T21:33:36.026Z,16.42
2023-07-03T21:36:14.838Z,16.36
2023-07-03T21:38:51.364Z,16.31
2023-07-03T21:41:23.439Z,16.26
2023-07-03T21:43:58.997Z,16.21
2023-07-03T21:46:34.208Z,16.15
2023-07-03T21:49:08.042Z,16.09
2023-07-03T21:51:41.601Z,16.03
2023-07-03T21:54:15.489Z,15.96
2023-07-03T21:56:49.206Z,15.90
2023-07-03T21:59:22.565Z,15.85
2023-07-03T22:01:56.248Z,15.80
2023-07-03T22:04:30.261Z,15.77
2023-07-03T22:07:07.075Z,15.68
2023-07-03T22:09:41.339Z,15.62
2023-07-03T22:12:15.523Z,15.58
2023-07-03T22:14:49.042Z,15.54
2023-07-03T22:17:23.903Z,15.52
2023-07-03T22:19:57.525Z,15.49
2023-07-03T22:22:31.284Z,15.45
2023-07-03T22:25:04.794Z,15.41
2023-07-03T22:27:38.603Z,15.37
2023-07-03T22:30:13.866Z,15.36
2023-07-03T22:32:47.839Z,15.34
2023-07-03T22:35:21.488Z,15.32
2023-07-03T22:37:54.884Z,15.31
2023-07-03T22:40:28.132Z,15.29
2023-07-03T22:43:01.526Z,15.26
2023-07-03T22:45:35.207Z,15.25
2023-07-03T22:48:09.524Z,15.24
2023-07-03T22:50:44.601Z,15.22
2023-07-03T22:53:17.852Z,15.21
2023-07-03T22:55:51.952Z,15.20
2023-07-03T22:58:25.906Z,15.19
2023-07-03T23:00:59.849Z,15.17
2023-07-03T23:03:33.601Z,15.16
2023-07-03T23:06:09.381Z,15.14
2023-07-03T23:08:44.653Z,15.12
2023-07-03T23:11:18.170Z,15.07
2023-07-03T23:13:51.706Z,15.01
2023-07-03T23:16:25.179Z,14.99
2023-07-03T23:18:58.700Z,14.94
2023-07-03T23:21:32.331Z,14.90
2023-07-03T23:24:06.100Z,14.87
2023-07-03T23:26:39.963Z,14.82
2023-07-03T23:29:13.444Z,14.77
2023-07-03T23:31:46.638Z,14.75
2023-07-03T23:34:20.060Z,14.72
2023-07-03T23:36:53.497Z,14.68
2023-07-03T23:39:27.626Z,14.64
2023-07-03T23:42:01.843Z,14.61
2023-07-03T23:44:35.961Z,14.58
2023-07-03T23:47:10.249Z,14.56
2023-07-03T23:49:44.851Z,14.54
2023-07-03T23:52:18.538Z,14.51
2023-07-03T23:54:51.860Z,14.49
2023-07-03T23:57:25.321Z,14.46
2023-07-03T23:59:58.852Z,14.41
